Time;durP1;ratioP1;P1;durP2;ratioP2;P2;SDS_P1;SDS_P2;PMS_P1;PMS_P2;Temp;Humidity;BMP_temperature;BMP_pressure;BME280_temperature;BME280_humidity;BME280_pressure;Samples;Min_cycle;Max_cycle;Signal;HPM_P1;HPM_P2
2022/04/01 00:01:11;;;;;;;5.22;1.48;;;0.80;99.90;;;;;;5010656;28;20065;-62
2022/04/01 00:03:38;;;;;;;5.65;1.10;;;0.80;99.90;;;;;;5007216;28;20053;-62
2022/04/01 00:06:06;;;;;;;4.20;1.77;;;0.90;99.90;;;;;;4960847;28;20058;-62
2022/04/01 00:08:34;;;;;;;2.17;0.98;;;0.90;99.90;;;;;;5006447;28;20042;-63
2022/04/01 00:11:02;;;;;;;6.05;1.30;;;1.00;99.90;;;;;;4999602;28;20407;-63
2022/04/01 00:13:29;;;;;;;4.43;1.13;;;1.00;99.90;;;;;;4992258;28;20050;-63
2022/04/01 00:15:58;;;;;;;4.90;1.35;;;1.00;99.90;;;;;;4993364;28;20053;-63
2022/04/01 00:18:27;;;;;;;3.50;1.00;;;1.00;99.90;;;;;;5002234;28;20053;-66
2022/04/01 00:20:55;;;;;;;5.57;1.40;;;1.00;99.90;;;;;;4990582;28;20053;-64
2022/04/01 00:23:24;;;;;;;3.85;1.10;;;1.00;99.90;;;;;;4995760;28;20042;-63
2022/04/01 00:25:51;;;;;;;4.32;0.98;;;1.00;99.90;;;;;;5009885;28;20054;-66
2022/04/01 00:28:20;;;;;;;4.80;0.95;;;0.90;99.90;;;;;;4990107;28;20054;-62
2022/04/01 00:30:48;;;;;;;3.20;0.83;;;0.90;99.90;;;;;;4990500;28;20046;-64
2022/04/01 00:33:16;;;;;;;7.00;1.50;;;0.90;99.90;;;;;;4958596;28;20532;-63
2022/04/01 00:35:44;;;;;;;2.47;1.23;;;0.90;99.90;;;;;;4992164;28;20057;-63
2022/04/01 00:38:12;;;;;;;2.03;1.05;;;0.80;99.90;;;;;;5009637;28;20052;-62
2022/04/01 00:40:41;;;;;;;1.83;0.98;;;0.80;99.90;;;;;;4993585;28;20449;-62
2022/04/01 00:43:09;;;;;;;6.22;1.35;;;0.70;99.90;;;;;;5009818;28;20042;-63
2022/04/01 00:45:37;;;;;;;4.85;1.38;;;0.70;99.90;;;;;;4995909;28;20050;-63
2022/04/01 00:48:05;;;;;;;5.00;1.50;;;0.60;99.90;;;;;;4995580;28;20238;-63
2022/04/01 00:50:34;;;;;;;4.82;1.55;;;0.60;99.90;;;;;;5006402;28;20469;-63
2022/04/01 00:53:01;;;;;;;2.83;1.45;;;0.60;99.90;;;;;;4989711;28;20508;-63
2022/04/01 00:55:29;;;;;;;3.72;1.70;;;0.60;99.90;;;;;;5007572;28;20065;-63
2022/04/01 00:57:57;;;;;;;2.10;1.42;;;0.70;99.90;;;;;;5008422;28;20061;-62
2022/04/01 01:00:25;;;;;;;3.70;1.60;;;0.60;99.90;;;;;;5008759;28;20041;-66
2022/04/01 01:02:54;;;;;;;2.75;1.63;;;0.60;99.90;;;;;;4998903;28;20058;-62
2022/04/01 01:05:23;;;;;;;3.70;1.42;;;0.60;99.90;;;;;;4985147;28;20413;-64
2022/04/01 01:07:52;;;;;;;3.70;1.27;;;0.60;99.90;;;;;;4996136;28;20046;-63
2022/04/01 01:10:20;;;;;;;4.17;1.40;;;0.50;99.90;;;;;;4971836;28;20053;-64
2022/04/01 01:12:49;;;;;;;2.97;1.35;;;0.50;99.90;;;;;;4991705;28;20057;-66
2022/04/01 01:15:18;;;;;;;3.60;1.25;;;0.50;99.90;;;;;;4986724;28;20038;-64
2022/04/01 01:17:47;;;;;;;4.15;1.13;;;0.40;99.90;;;;;;5006748;28;20053;-63
2022/04/01 01:20:17;;;;;;;3.10;1.13;;;0.40;99.90;;;;;;4993022;28;20042;-65
2022/04/01 01:22:48;;;;;;;6.95;1.10;;;0.40;99.90;;;;;;4989417;28;20058;-63
2022/04/01 01:25:17;;;;;;;2.53;1.42;;;0.40;99.90;;;;;;5003779;28;20053;-63
2022/04/01 01:27:45;;;;;;;4.75;1.05;;;0.40;99.90;;;;;;5008994;28;20041;-62
2022/04/01 01:30:13;;;;;;;3.63;1.50;;;0.30;99.90;;;;;;4988855;28;20497;-62
2022/04/01 01:32:41;;;;;;;7.78;1.38;;;0.30;99.90;;;;;;4993650;28;20046;-63
2022/04/01 01:35:09;;;;;;;8.18;1.30;;;0.30;99.90;;;;;;4995463;28;20055;-63
2022/04/01 01:37:38;;;;;;;7.40;1.55;;;0.40;99.90;;;;;;4978448;28;20409;-62
2022/04/01 01:40:08;;;;;;;3.78;1.27;;;0.50;99.90;;;;;;5011417;28;20133;-62
2022/04/01 01:42:36;;;;;;;4.25;1.10;;;0.50;99.90;;;;;;5012157;28;20050;-63
2022/04/01 01:45:05;;;;;;;3.10;1.10;;;0.60;99.90;;;;;;4993437;28;20042;-63
2022/04/01 01:47:33;;;;;;;7.27;1.23;;;0.70;99.90;;;;;;5010692;28;20050;-62
2022/04/01 01:55:33;;;;;;;3.47;1.13;;;0.90;99.90;;;;;;4991942;28;20065;-64
2022/04/01 01:58:05;;;;;;;12.60;1.98;;;0.90;99.90;;;;;;4978637;28;20038;-63
2022/04/01 02:00:37;;;;;;;3.55;0.88;;;0.90;99.90;;;;;;4995197;28;20042;-66
2022/04/01 02:03:05;;;;;;;2.45;1.58;;;1.00;99.90;;;;;;4980053;28;20058;-66
2022/04/01 02:05:34;;;;;;;5.13;0.95;;;1.00;99.90;;;;;;4997285;28;20050;-64
2022/04/01 02:08:05;;;;;;;3.10;0.80;;;1.00;99.90;;;;;;4979125;28;20490;-65
2022/04/01 02:10:33;;;;;;;2.95;1.42;;;1.00;99.90;;;;;;4996038;28;20038;-63
2022/04/01 02:13:02;;;;;;;5.40;1.48;;;1.00;99.90;;;;;;4975374;28;20398;-63
2022/04/01 02:15:29;;;;;;;3.60;1.27;;;1.00;99.90;;;;;;4960431;28;20050;-63
2022/04/01 02:17:57;;;;;;;1.15;0.70;;;1.00;99.90;;;;;;4943049;28;20421;-63
2022/04/01 02:20:25;;;;;;;3.42;0.98;;;1.00;99.90;;;;;;4973393;28;20533;-64
2022/04/01 02:22:54;;;;;;;4.78;0.85;;;1.00;99.90;;;;;;4974751;28;20053;-63
2022/04/01 02:25:22;;;;;;;1.00;0.73;;;0.90;99.90;;;;;;4992058;28;20042;-62
2022/04/01 02:27:49;;;;;;;3.63;1.00;;;0.90;99.90;;;;;;4974664;28;20482;-62
2022/04/01 02:30:17;;;;;;;3.45;1.50;;;0.90;99.90;;;;;;4974145;28;20046;-62
2022/04/01 02:32:48;;;;;;;1.60;0.85;;;0.80;99.90;;;;;;4992160;28;20530;-63
2022/04/01 02:35:24;;;;;;;4.18;1.23;;;0.70;99.90;;;;;;4974558;28;20057;-63
2022/04/01 02:37:52;;;;;;;7.00;1.15;;;0.70;99.90;;;;;;4990799;28;20042;-63
2022/04/01 02:40:20;;;;;;;2.10;1.10;;;0.70;99.90;;;;;;4974652;28;20065;-62
2022/04/01 02:42:53;;;;;;;3.50;0.75;;;0.70;99.90;;;;;;4977069;28;20390;-62
2022/04/01 02:45:24;;;;;;;3.38;1.20;;;0.70;99.90;;;;;;4978412;28;20049;-62
2022/04/01 02:47:53;;;;;;;1.23;0.82;;;0.70;99.90;;;;;;4994292;28;20058;-63
2022/04/01 02:50:22;;;;;;;5.80;1.40;;;0.80;99.90;;;;;;4978364;28;20042;-63
2022/04/01 02:52:49;;;;;;;5.15;1.23;;;0.80;99.90;;;;;;4977567;28;20050;-62
2022/04/01 02:55:17;;;;;;;4.43;1.33;;;0.80;99.90;;;;;;4978155;28;20050;-63
2022/04/01 02:57:46;;;;;;;1.85;1.20;;;0.80;99.90;;;;;;4994297;28;20057;-64
2022/04/01 03:00:21;;;;;;;3.28;1.20;;;0.70;99.90;;;;;;4994230;28;20047;-62
2022/04/01 03:03:06;;;;;;;2.05;1.08;;;0.70;99.90;;;;;;4977904;28;20057;-63
2022/04/01 03:05:36;;;;;;;5.47;1.55;;;0.60;99.90;;;;;;4977900;28;20050;-64
2022/04/01 03:08:07;;;;;;;3.45;1.10;;;0.50;99.90;;;;;;4978049;28;20478;-62
2022/04/01 03:10:38;;;;;;;4.93;2.13;;;0.40;99.90;;;;;;4961660;28;20050;-62
2022/04/01 03:13:07;;;;;;;2.47;1.05;;;0.50;99.90;;;;;;4993966;28;20046;-62
2022/04/01 03:15:50;;;;;;;5.25;0.98;;;0.40;99.90;;;;;;4977789;28;20039;-63
2022/04/01 03:18:40;;;;;;;4.30;1.00;;;0.50;99.90;;;;;;4994851;28;20054;-63
2022/04/01 03:21:10;;;;;;;5.25;1.17;;;0.40;99.90;;;;;;4977748;28;20043;-63
2022/04/01 03:23:45;;;;;;;3.03;0.80;;;0.40;99.90;;;;;;4977661;28;20482;-63
2022/04/01 03:26:20;;;;;;;5.40;0.73;;;0.30;99.90;;;;;;4977666;28;20413;-63
2022/04/01 03:29:10;;;;;;;3.20;1.08;;;0.30;99.90;;;;;;4976790;28;20058;-63
2022/04/01 03:31:40;;;;;;;7.60;0.90;;;0.30;99.90;;;;;;4977384;28;20387;-63
2022/04/01 03:34:08;;;;;;;1.88;0.73;;;0.20;99.90;;;;;;4994809;28;20113;-63
2022/04/01 03:36:37;;;;;;;5.18;1.08;;;0.20;99.90;;;;;;4977315;28;20047;-64
2022/04/01 03:39:05;;;;;;;5.63;1.60;;;0.10;99.90;;;;;;4993483;28;20387;-62
2022/04/01 03:41:44;;;;;;;;;;;0.10;99.90;;;;;;4961611;28;20051;-64
2022/04/01 03:44:13;;;;;;;2.08;1.00;;;0.00;99.90;;;;;;4993553;28;19921;-64
2022/04/01 03:46:56;;;;;;;2.97;0.80;;;0.00;99.90;;;;;;4973841;28;20061;-63
2022/04/01 03:49:27;;;;;;;7.85;2.08;;;-0.10;99.90;;;;;;4990029;28;20518;-64
2022/04/01 03:51:55;;;;;;;2.30;1.40;;;-0.10;99.90;;;;;;4990149;28;20054;-63
2022/04/01 03:54:25;;;;;;;;;;;-0.10;99.90;;;;;;4972477;28;20047;-63
2022/04/01 03:57:18;;;;;;;2.78;0.80;;;-0.10;99.90;;;;;;4954142;28;20362;-62
2022/04/01 04:00:12;;;;;;;3.40;1.00;;;-0.10;99.90;;;;;;4975033;28;20043;-62
2022/04/01 04:02:42;;;;;;;7.85;1.23;;;-0.10;99.90;;;;;;4974847;28;20058;-62
2022/04/01 04:05:12;;;;;;;4.00;1.35;;;0.00;99.90;;;;;;4984676;28;20434;-62
2022/04/01 04:07:45;;;;;;;1.67;0.90;;;0.00;99.90;;;;;;5007759;28;21633;-62
2022/04/01 04:10:17;;;;;;;4.05;1.15;;;0.10;99.90;;;;;;4992841;28;20053;-62
2022/04/01 04:13:06;;;;;;;2.42;0.90;;;0.20;99.90;;;;;;4984036;28;20054;-62
2022/04/01 04:16:08;;;;;;;3.42;1.17;;;0.20;99.90;;;;;;4988132;28;20054;-62
2022/04/01 04:18:45;;;;;;;3.45;1.13;;;0.30;99.90;;;;;;4960570;28;20059;-62
2022/04/01 04:21:32;;;;;;;2.63;1.00;;;0.40;99.90;;;;;;5002821;28;20046;-61
2022/04/01 04:24:01;;;;;;;3.38;1.20;;;0.30;99.90;;;;;;4992470;28;20050;-63
2022/04/01 04:26:49;;;;;;;2.28;1.02;;;0.20;99.90;;;;;;5005965;28;20062;-62
2022/04/01 04:29:18;;;;;;;4.47;1.38;;;0.20;99.90;;;;;;4957855;28;20494;-62
2022/04/01 04:31:59;;;;;;;6.88;1.08;;;0.10;99.90;;;;;;4972736;28;20059;-62
2022/04/01 04:34:34;;;;;;;2.40;0.90;;;0.10;99.90;;;;;;4981116;28;20386;-62
2022/04/01 04:37:08;;;;;;;2.45;0.93;;;0.00;99.90;;;;;;4992464;28;20659;-62
2022/04/01 04:39:43;;;;;;;3.67;1.38;;;0.00;99.90;;;;;;5008230;28;20046;-64
2022/04/01 04:42:15;;;;;;;2.70;1.00;;;0.00;99.90;;;;;;5007840;28;20482;-62
2022/04/01 04:44:45;;;;;;;9.27;1.67;;;-0.10;99.90;;;;;;4976342;28;20042;-62
2022/04/01 04:47:25;;;;;;;4.15;0.68;;;-0.10;99.90;;;;;;5003345;28;20055;-62
2022/04/01 04:49:56;;;;;;;2.42;0.88;;;-0.10;99.90;;;;;;4982386;28;20054;-63
2022/04/01 04:52:30;;;;;;;8.80;1.58;;;-0.20;99.90;;;;;;4953954;28;20541;-63
2022/04/01 04:55:07;;;;;;;4.10;1.30;;;-0.20;99.90;;;;;;4969486;28;20617;-63
2022/04/01 04:58:14;;;;;;;2.92;1.05;;;-0.20;99.90;;;;;;4964780;28;20054;-62
2022/04/01 05:01:00;;;;;;;4.97;1.25;;;-0.20;99.90;;;;;;5005190;28;20049;-63
2022/04/01 05:03:52;;;;;;;4.35;1.05;;;-0.30;99.90;;;;;;4975901;28;20398;-64
2022/04/01 05:06:27;;;;;;;2.10;1.15;;;-0.30;99.90;;;;;;4965934;28;20398;-62
2022/04/01 05:09:48;;;;;;;4.68;1.40;;;-0.30;99.90;;;;;;4921493;29;20055;-64
2022/04/01 05:12:43;;;;;;;6.65;1.48;;;-0.30;99.90;;;;;;4984735;28;20054;-66
2022/04/01 05:15:56;;;;;;;2.00;0.90;;;-0.30;99.90;;;;;;4982863;28;20050;-67
2022/04/01 05:18:34;;;;;;;2.40;1.10;;;-0.30;99.90;;;;;;4983532;28;20426;-63
2022/04/01 05:21:04;;;;;;;6.03;1.17;;;-0.30;99.90;;;;;;4984480;28;20057;-62
2022/04/01 05:23:38;;;;;;;4.20;1.52;;;-0.30;99.90;;;;;;5002721;28;20034;-62
2022/04/01 05:26:14;;;;;;;5.00;1.27;;;-0.30;99.90;;;;;;4987582;28;20053;-64
2022/04/01 05:29:02;;;;;;;3.78;1.10;;;-0.20;99.90;;;;;;4987887;28;20547;-67
2022/04/01 05:31:34;;;;;;;2.22;1.20;;;-0.20;99.90;;;;;;5003319;28;20046;-62
2022/04/01 05:34:03;;;;;;;4.18;1.33;;;-0.20;99.90;;;;;;5004074;28;20053;-65
2022/04/01 05:36:32;;;;;;;4.78;1.00;;;-0.20;99.90;;;;;;4992505;28;20053;-63
2022/04/01 05:39:03;;;;;;;4.30;1.38;;;-0.30;99.90;;;;;;4977041;28;20046;-69
2022/04/01 05:41:33;;;;;;;9.85;2.35;;;-0.30;99.90;;;;;;4985222;28;20034;-69
2022/04/01 05:44:03;;;;;;;1.70;0.90;;;-0.30;99.90;;;;;;4987138;28;20057;-63
2022/04/01 05:46:44;;;;;;;2.53;1.25;;;-0.40;99.90;;;;;;4975340;28;20057;-63
2022/04/01 05:49:16;;;;;;;7.50;1.70;;;-0.40;99.90;;;;;;4998503;28;20050;-63
2022/04/01 05:51:46;;;;;;;2.97;1.27;;;-0.40;99.90;;;;;;4973564;28;20047;-62
2022/04/01 05:54:16;;;;;;;5.82;1.20;;;-0.40;99.90;;;;;;4987691;28;20050;-63
2022/04/01 05:56:44;;;;;;;;;;;-0.40;99.90;;;;;;4984971;28;20062;-63
2022/04/01 05:59:15;;;;;;;4.20;1.77;;;-0.40;99.90;;;;;;4969004;28;19922;-64
2022/04/01 06:01:47;;;;;;;3.92;1.35;;;-0.40;99.90;;;;;;4972523;28;20058;-65
2022/04/01 06:04:37;;;;;;;8.90;2.08;;;-0.40;99.90;;;;;;4974551;28;20058;-64
2022/04/01 06:07:31;;;;;;;6.68;1.70;;;-0.40;99.90;;;;;;4979350;28;20047;-63
2022/04/01 06:10:46;;;;;;;7.07;1.45;;;-0.40;99.90;;;;;;4980187;28;20058;-62
2022/04/01 06:13:39;;;;;;;6.28;1.50;;;-0.40;99.90;;;;;;4973487;28;20066;-62
2022/04/01 06:16:45;;;;;;;6.20;1.45;;;-0.30;99.90;;;;;;4975861;28;20058;-63
2022/04/01 06:19:31;;;;;;;6.28;1.40;;;-0.30;99.90;;;;;;5004948;28;20079;-65
2022/04/01 06:22:12;;;;;;;5.15;2.05;;;-0.20;99.90;;;;;;4985705;28;20054;-63
2022/04/01 06:25:01;;;;;;;3.78;1.50;;;-0.20;99.90;;;;;;4991174;28;20050;-65
2022/04/01 06:27:41;;;;;;;3.40;1.80;;;-0.10;99.90;;;;;;4978060;28;20433;-63
2022/04/01 06:30:12;;;;;;;6.40;1.38;;;-0.10;99.90;;;;;;4989425;28;20429;-63
2022/04/01 06:32:55;;;;;;;7.43;1.88;;;-0.10;99.90;;;;;;4988012;28;20058;-63
2022/04/01 06:35:44;;;;;;;7.22;1.80;;;-0.10;99.90;;;;;;4988749;28;20050;-66
2022/04/01 06:38:49;;;;;;;4.15;1.60;;;-0.10;99.90;;;;;;5007642;28;20042;-64
2022/04/01 06:41:23;;;;;;;3.75;1.48;;;0.00;99.90;;;;;;4982242;28;20058;-66
2022/04/01 06:44:08;;;;;;;7.05;1.90;;;0.00;99.90;;;;;;5001756;28;20046;-64
2022/04/01 06:46:55;;;;;;;7.68;1.77;;;0.00;99.90;;;;;;4986383;28;20061;-63
2022/04/01 06:49:25;;;;;;;5.30;1.67;;;0.00;99.90;;;;;;4984866;28;20046;-63
2022/04/01 06:52:31;;;;;;;3.00;0.95;;;0.00;99.90;;;;;;4926122;29;21479;-63
2022/04/01 06:55:08;;;;;;;4.60;1.73;;;0.10;99.90;;;;;;4932351;29;20039;-64
2022/04/01 06:57:59;;;;;;;5.82;1.52;;;0.20;99.90;;;;;;4974805;28;20066;-62
2022/04/01 07:00:35;;;;;;;4.10;1.70;;;0.30;99.90;;;;;;4993454;28;20053;-63
2022/04/01 07:03:03;;;;;;;3.88;1.45;;;0.30;99.90;;;;;;4996012;28;20046;-63
2022/04/01 07:05:34;;;;;;;5.22;1.38;;;0.30;99.90;;;;;;4992760;28;20050;-63
2022/04/01 07:08:04;;;;;;;2.25;1.35;;;0.40;99.90;;;;;;5001237;28;20057;-62
2022/04/01 07:10:33;;;;;;;7.13;1.50;;;0.50;99.90;;;;;;5005307;28;20046;-62
2022/04/01 07:13:01;;;;;;;6.73;1.50;;;0.50;99.90;;;;;;5010055;28;20604;-62
2022/04/01 07:15:29;;;;;;;6.28;1.50;;;0.60;99.90;;;;;;5010873;28;20049;-63
2022/04/01 07:17:56;;;;;;;3.60;1.27;;;0.70;99.90;;;;;;5007978;28;20050;-63
2022/04/01 07:20:25;;;;;;;4.18;1.58;;;0.70;99.90;;;;;;4989499;28;20050;-64
2022/04/01 07:22:53;;;;;;;8.48;1.30;;;0.80;99.90;;;;;;5010749;28;20042;-66
2022/04/01 07:25:23;;;;;;;2.58;1.60;;;0.90;99.90;;;;;;4980340;28;20390;-62
2022/04/01 07:27:52;;;;;;;6.88;1.30;;;0.90;99.90;;;;;;4999196;28;20041;-64
2022/04/01 07:30:20;;;;;;;4.75;1.52;;;1.00;99.90;;;;;;4992768;28;20413;-63
2022/04/01 07:32:51;;;;;;;6.82;1.70;;;1.00;99.90;;;;;;4993166;28;20057;-66
2022/04/01 07:35:19;;;;;;;1.80;1.20;;;1.10;99.90;;;;;;4992559;28;20053;-62
2022/04/01 07:37:47;;;;;;;4.90;1.45;;;1.30;99.90;;;;;;5010719;28;20053;-62
2022/04/01 07:40:24;;;;;;;7.00;1.70;;;1.20;99.90;;;;;;4997297;28;20073;-62
2022/04/01 07:42:53;;;;;;;3.75;1.83;;;1.20;99.90;;;;;;5002747;28;20410;-62
2022/04/01 07:45:22;;;;;;;3.92;1.40;;;1.30;99.90;;;;;;5011349;28;20061;-63
2022/04/01 07:47:52;;;;;;;4.73;1.83;;;1.40;99.90;;;;;;5006197;28;20069;-64
2022/04/01 07:50:21;;;;;;;4.47;1.23;;;1.40;99.90;;;;;;4999285;28;20845;-62
2022/04/01 07:52:48;;;;;;;6.43;1.65;;;1.50;99.90;;;;;;4993169;28;20053;-62
2022/04/01 07:55:17;;;;;;;4.57;1.40;;;1.50;99.90;;;;;;5009828;28;20046;-62
2022/04/01 07:57:48;;;;;;;5.47;2.85;;;1.60;99.90;;;;;;4993195;28;20052;-62
2022/04/01 08:00:34;;;;;;;3.33;1.65;;;1.60;99.90;;;;;;5008340;28;20378;-62
2022/04/01 08:03:02;;;;;;;3.78;0.98;;;1.70;99.90;;;;;;4991721;28;20048;-62
2022/04/01 08:05:30;;;;;;;2.92;1.38;;;1.80;99.90;;;;;;5010106;28;20397;-63
2022/04/01 08:07:58;;;;;;;6.90;1.83;;;1.90;99.90;;;;;;4988218;28;20053;-62
2022/04/01 08:10:26;;;;;;;3.28;1.35;;;1.90;99.90;;;;;;5009965;28;20056;-63
2022/04/01 08:12:53;;;;;;;6.35;2.53;;;2.00;99.90;;;;;;5008755;28;20050;-62
2022/04/01 08:15:21;;;;;;;2.97;1.83;;;2.10;99.90;;;;;;5008740;28;20046;-62
2022/04/01 08:17:49;;;;;;;3.88;1.92;;;2.10;99.90;;;;;;5001949;28;20078;-63
2022/04/01 08:20:16;;;;;;;3.30;1.35;;;2.20;99.90;;;;;;5007721;28;20046;-65
2022/04/01 08:22:44;;;;;;;2.38;1.23;;;2.30;99.90;;;;;;5009016;28;20381;-66
2022/04/01 08:25:17;;;;;;;3.80;1.58;;;2.30;99.90;;;;;;4994126;28;20076;-63
2022/04/01 08:27:45;;;;;;;4.90;1.45;;;2.40;99.90;;;;;;4985438;28;20050;-67
2022/04/01 08:30:13;;;;;;;5.18;1.35;;;2.50;99.90;;;;;;4990370;28;20057;-63
2022/04/01 08:32:41;;;;;;;3.38;1.50;;;2.60;99.90;;;;;;4999437;28;20046;-62
2022/04/01 08:35:09;;;;;;;7.43;1.45;;;2.70;99.90;;;;;;5005708;28;20069;-63
2022/04/01 08:37:38;;;;;;;3.65;1.38;;;2.70;99.90;;;;;;5007157;28;20042;-65
2022/04/01 08:40:08;;;;;;;2.15;1.15;;;2.80;99.90;;;;;;5008252;28;20042;-66
2022/04/01 08:42:36;;;;;;;1.95;0.93;;;2.90;99.90;;;;;;5009684;28;20050;-63
2022/04/01 08:45:08;;;;;;;4.63;1.23;;;2.90;99.90;;;;;;5009582;28;20401;-65
2022/04/01 08:47:38;;;;;;;2.88;1.00;;;3.00;99.90;;;;;;4999437;28;20061;-65
2022/04/01 08:50:08;;;;;;;5.30;1.35;;;3.10;99.90;;;;;;4989152;28;20510;-64
2022/04/01 08:52:36;;;;;;;1.17;0.85;;;3.10;99.90;;;;;;5003404;28;20050;-63
2022/04/01 08:55:09;;;;;;;1.52;1.02;;;3.20;99.90;;;;;;4989491;28;20045;-63
2022/04/01 08:57:41;;;;;;;2.80;1.20;;;3.30;99.90;;;;;;5004077;28;20449;-66
2022/04/01 09:00:14;;;;;;;1.27;0.90;;;3.50;99.90;;;;;;5005098;28;20042;-62
2022/04/01 09:02:43;;;;;;;4.00;1.35;;;3.60;99.90;;;;;;4995948;28;20050;-65
2022/04/01 09:05:12;;;;;;;2.72;1.25;;;3.80;99.90;;;;;;5009594;28;20053;-64
2022/04/01 09:07:40;;;;;;;1.85;0.88;;;3.90;99.90;;;;;;5008348;28;20058;-65
2022/04/01 09:10:08;;;;;;;6.25;1.55;;;4.10;99.90;;;;;;5008778;28;20054;-65
2022/04/01 09:12:51;;;;;;;8.18;1.23;;;4.20;99.90;;;;;;5008967;28;20048;-67
2022/04/01 09:15:19;;;;;;;8.43;2.33;;;4.20;99.90;;;;;;5008453;28;20053;-66
2022/04/01 09:17:49;;;;;;;9.45;1.42;;;4.30;99.90;;;;;;5005796;28;20049;-64
2022/04/01 09:20:17;;;;;;;1.38;0.90;;;4.40;99.90;;;;;;5005063;28;20049;-65
2022/04/01 09:22:45;;;;;;;2.05;1.10;;;4.50;99.90;;;;;;5003927;28;20046;-63
2022/04/01 09:25:19;;;;;;;4.35;1.20;;;4.60;99.90;;;;;;4973798;28;20042;-65
2022/04/01 09:27:52;;;;;;;6.93;1.50;;;4.60;99.90;;;;;;5002471;28;20497;-63
2022/04/01 09:30:30;;;;;;;5.28;1.08;;;4.60;99.90;;;;;;5008892;28;20054;-65
2022/04/01 09:33:00;;;;;;;5.38;1.20;;;4.60;99.90;;;;;;4997370;28;20046;-63
2022/04/01 09:35:31;;;;;;;6.05;1.50;;;4.70;99.90;;;;;;4995335;28;20050;-63
2022/04/01 09:38:04;;;;;;;3.33;1.17;;;4.80;99.90;;;;;;5007738;28;20056;-62
2022/04/01 09:40:35;;;;;;;3.50;0.80;;;4.90;99.90;;;;;;5008618;28;20048;-64
2022/04/01 09:43:07;;;;;;;5.22;1.33;;;5.10;99.90;;;;;;5007964;28;20073;-63
2022/04/01 09:45:36;;;;;;;5.88;1.13;;;5.30;99.90;;;;;;5008926;28;20061;-64
2022/04/01 09:48:06;;;;;;;3.08;0.80;;;5.40;99.90;;;;;;5006747;28;20508;-64
2022/04/01 09:50:37;;;;;;;3.35;0.70;;;5.60;99.90;;;;;;5007707;28;20044;-64
2022/04/01 09:53:13;;;;;;;3.28;0.98;;;5.80;99.90;;;;;;4995151;28;20401;-64
2022/04/01 09:55:49;;;;;;;1.55;0.68;;;6.00;99.90;;;;;;4999400;28;20050;-64
2022/04/01 09:58:19;;;;;;;2.60;0.80;;;6.10;99.90;;;;;;4986110;28;20052;-64
2022/04/01 10:00:48;;;;;;;;;;;6.20;99.90;;;;;;5005459;28;20057;-64
2022/04/01 10:03:16;;;;;;;2.15;1.10;;;6.20;99.90;;;;;;5008370;28;20289;-63
2022/04/01 10:05:45;;;;;;;3.05;0.93;;;6.30;99.90;;;;;;4982797;28;20057;-64
2022/04/01 10:08:13;;;;;;;3.60;0.93;;;6.40;99.90;;;;;;5004899;28;20792;-64
2022/04/01 10:10:46;;;;;;;4.95;1.02;;;6.40;99.90;;;;;;4987744;28;20397;-64
2022/04/01 10:13:24;;;;;;;1.23;0.90;;;6.40;99.90;;;;;;5006833;28;20057;-63
2022/04/01 10:15:54;;;;;;;11.00;1.63;;;6.60;99.90;;;;;;5008170;28;20054;-63
2022/04/01 10:18:42;;;;;;;7.93;0.90;;;6.80;99.90;;;;;;4982694;28;20042;-64
2022/04/01 10:21:10;;;;;;;2.20;1.17;;;6.90;99.90;;;;;;4991292;28;20474;-62
2022/04/01 10:23:48;;;;;;;4.63;1.42;;;6.90;99.90;;;;;;5001873;28;20031;-64
2022/04/01 10:26:18;;;;;;;6.35;0.88;;;6.80;99.90;;;;;;4983519;28;20050;-63
2022/04/01 10:28:50;;;;;;;4.78;0.98;;;6.70;99.90;;;;;;4991611;28;20482;-63
2022/04/01 10:31:20;;;;;;;1.88;0.80;;;6.70;99.90;;;;;;4999374;28;20041;-63
2022/04/01 10:33:49;;;;;;;3.00;1.00;;;6.90;99.90;;;;;;4986016;28;20395;-64
2022/04/01 10:36:33;;;;;;;1.25;0.65;;;7.20;99.90;;;;;;4989116;28;20236;-61
2022/04/01 10:39:06;;;;;;;15.93;1.77;;;7.40;99.90;;;;;;5002020;28;20058;-62
2022/04/01 10:41:34;;;;;;;3.63;0.93;;;7.50;99.90;;;;;;5002024;28;20053;-61
2022/04/01 10:44:02;;;;;;;2.33;0.77;;;7.70;99.90;;;;;;4992737;28;20123;-61
2022/04/01 10:46:30;;;;;;;3.20;1.05;;;8.00;99.90;;;;;;4976693;28;20045;-62
2022/04/01 10:52:19;;;;;;;12.15;1.33;;;8.30;99.90;;;;;;5003150;28;20050;-62
2022/04/01 10:55:09;;;;;;;49.88;3.13;;;8.30;99.90;;;;;;4988492;28;20046;-62
2022/04/01 10:57:45;;;;;;;3.50;0.80;;;8.20;99.90;;;;;;5007394;28;20383;-62
2022/04/01 11:00:17;;;;;;;23.25;1.40;;;8.20;99.90;;;;;;5007368;28;20564;-61
2022/04/01 11:02:47;;;;;;;2.88;0.40;;;8.30;99.90;;;;;;4977984;28;20401;-62
2022/04/01 11:05:31;;;;;;;2.85;1.02;;;8.50;99.90;;;;;;4995888;28;20375;-60
2022/04/01 11:08:19;;;;;;;1.90;0.80;;;8.50;99.90;;;;;;5005307;28;20053;-62
2022/04/01 11:11:06;;;;;;;12.27;1.05;;;8.40;99.90;;;;;;5011276;28;20050;-61
2022/04/01 11:13:35;;;;;;;7.63;1.23;;;8.20;99.90;;;;;;5011173;28;20058;-62
2022/04/01 11:16:19;;;;;;;2.30;1.13;;;8.10;99.20;;;;;;4986130;28;20069;-62
2022/04/01 11:19:10;;;;;;;6.25;1.50;;;8.00;99.90;;;;;;5005038;28;20045;-65
2022/04/01 11:21:38;;;;;;;1.80;0.93;;;7.90;99.90;;;;;;4995180;28;20076;-63
2022/04/01 11:24:29;;;;;;;3.42;1.13;;;7.70;99.90;;;;;;4998710;28;20046;-63
2022/04/01 11:27:26;;;;;;;2.70;0.60;;;7.60;99.90;;;;;;5004334;28;20054;-65
2022/04/01 11:30:14;;;;;;;3.97;0.98;;;7.60;99.90;;;;;;4983750;28;20050;-63
2022/04/01 11:32:44;;;;;;;3.53;0.80;;;7.80;99.90;;;;;;4995754;28;20101;-63
2022/04/01 11:35:13;;;;;;;;;;;8.00;99.90;;;;;;4996755;28;20047;-63
2022/04/01 11:37:43;;;;;;;3.65;0.93;;;8.20;99.90;;;;;;4997283;28;19928;-63
2022/04/01 11:40:12;;;;;;;4.93;1.42;;;8.40;99.90;;;;;;4994105;28;20050;-62
2022/04/01 11:43:05;;;;;;;9.18;1.08;;;8.70;99.90;;;;;;4995480;28;20045;-64
2022/04/01 11:45:37;;;;;;;35.88;3.25;;;8.90;98.80;;;;;;4998056;28;20050;-62
2022/04/01 11:48:19;;;;;;;12.98;1.73;;;8.90;97.60;;;;;;5007063;28;20054;-62
2022/04/01 11:50:51;;;;;;;1.02;0.50;;;8.80;97.30;;;;;;5010721;28;20048;-61
2022/04/01 11:53:21;;;;;;;6.43;0.88;;;8.70;95.90;;;;;;5002499;28;20550;-61
2022/04/01 11:55:49;;;;;;;5.80;0.80;;;8.50;96.20;;;;;;5010124;28;20061;-62
2022/04/01 11:58:17;;;;;;;13.23;2.65;;;8.50;97.60;;;;;;5010643;28;20554;-61
2022/04/01 12:00:46;;;;;;;3.60;0.60;;;8.60;98.20;;;;;;5009022;28;20484;-62
2022/04/01 12:03:13;;;;;;;25.52;1.40;;;8.70;98.10;;;;;;4999402;28;20397;-62
2022/04/01 12:05:41;;;;;;;8.52;1.08;;;9.00;97.80;;;;;;5009355;28;20058;-61
2022/04/01 12:10:57;;;;;;;7.72;1.00;;;9.00;97.20;;;;;;5000002;28;20045;-61
2022/04/01 12:13:27;;;;;;;4.97;0.80;;;9.30;99.90;;;;;;5007504;28;20038;-61
2022/04/01 12:15:57;;;;;;;4.45;2.20;;;9.80;99.90;;;;;;5003679;28;20134;-62
2022/04/01 12:18:29;;;;;;;2.72;0.77;;;10.30;95.50;;;;;;5010371;28;20042;-63
2022/04/01 12:20:59;;;;;;;5.88;1.88;;;10.60;94.20;;;;;;5004779;28;20520;-61
2022/04/01 12:23:30;;;;;;;;;;;10.90;93.50;;;;;;5001081;28;20057;-64
2022/04/01 12:25:59;;;;;;;2.35;0.55;;;11.30;92.30;;;;;;5008233;28;19925;-61
2022/04/01 12:28:42;;;;;;;2.80;0.75;;;11.70;91.50;;;;;;4997043;28;20049;-63
2022/04/01 12:31:21;;;;;;;2.20;0.60;;;11.90;84.00;;;;;;5006595;28;20045;-63
2022/04/01 12:33:52;;;;;;;4.10;0.50;;;11.80;83.80;;;;;;4992103;28;20046;-66
2022/04/01 12:36:35;;;;;;;1.85;0.50;;;11.90;84.70;;;;;;4999092;28;20046;-65
2022/04/01 12:39:12;;;;;;;1.15;0.55;;;12.20;82.40;;;;;;5006991;28;20050;-63
2022/04/01 12:42:01;;;;;;;2.65;0.40;;;12.50;81.80;;;;;;5008523;28;20157;-62
2022/04/01 12:44:31;;;;;;;2.78;0.60;;;12.80;80.10;;;;;;5009572;28;20045;-61
2022/04/01 12:47:00;;;;;;;;;;;12.90;77.00;;;;;;5007342;28;20058;-61
2022/04/01 12:49:32;;;;;;;4.32;0.80;;;12.70;72.50;;;;;;5008266;28;19937;-61
2022/04/01 12:52:04;;;;;;;1.42;0.60;;;12.20;73.10;;;;;;4995777;28;20485;-62
2022/04/01 12:54:48;;;;;;;;;;;11.60;73.90;;;;;;4997128;28;20367;-61
2022/04/01 12:57:19;;;;;;;1.05;0.73;;;11.10;75.20;;;;;;4989203;28;19925;-61
2022/04/01 12:59:49;;;;;;;;;;;10.60;76.90;;;;;;5008872;28;20053;-61
2022/04/01 13:02:19;;;;;;;3.83;0.68;;;10.30;78.60;;;;;;5008912;28;19928;-63
2022/04/01 13:04:49;;;;;;;7.57;0.68;;;10.00;80.70;;;;;;4991928;28;20041;-62
2022/04/01 13:07:33;;;;;;;;;;;9.80;81.10;;;;;;4962615;28;20061;-61
2022/04/01 13:10:01;;;;;;;3.00;0.52;;;9.70;82.30;;;;;;5007932;28;19929;-61
2022/04/01 13:12:32;;;;;;;8.32;1.00;;;9.50;82.10;;;;;;4975252;28;20054;-61
2022/04/01 13:15:02;;;;;;;3.40;0.80;;;9.70;88.50;;;;;;4991237;28;20046;-60
2022/04/01 13:17:39;;;;;;;2.50;0.75;;;10.30;91.10;;;;;;4993649;28;20061;-61
2022/04/01 13:20:10;;;;;;;4.13;0.70;;;11.00;84.00;;;;;;5003384;28;20042;-61
2022/04/01 13:22:42;;;;;;;1.42;0.60;;;11.50;84.10;;;;;;4993378;28;20060;-61
2022/04/01 13:25:13;;;;;;;2.72;0.55;;;11.90;78.30;;;;;;4992741;28;20509;-62
2022/04/01 13:27:42;;;;;;;1.48;0.63;;;11.80;74.80;;;;;;5000953;28;20050;-61
2022/04/01 13:30:11;;;;;;;2.90;0.80;;;11.50;74.90;;;;;;5007065;28;20041;-62
2022/04/01 13:32:38;;;;;;;7.82;1.25;;;11.00;75.40;;;;;;5006279;28;20046;-62
2022/04/01 13:35:07;;;;;;;2.15;0.98;;;10.60;77.10;;;;;;4995140;28;20064;-61
2022/04/01 13:37:37;;;;;;;6.38;0.70;;;10.40;78.20;;;;;;5008311;28;20042;-62
2022/04/01 13:40:06;;;;;;;7.20;0.88;;;10.10;80.80;;;;;;5006458;28;20054;-62
2022/04/01 13:42:34;;;;;;;2.92;0.88;;;10.10;80.30;;;;;;5006472;28;20052;-63